Monte Toledo — CQRA — position and weather

sailwx.info

Track history (hours):
 
Tides and Currents Weather Stations Pressure Air Temp Water Temp Dewpoint Dewpoint Depression Visibility Wind Speed Wind Dir Waves Ship Positions

Monte Toledo

Last reported at 2015-Aug-10 04:21 UTC. Time now 2015-Aug-31 23:48 UTC.
Position N 32°31' W 010°17'.
Warning: this ship's position is 21 days out of date.

Length 274 m; draft 9 m.

Type: Tanker. MMSI: 255740000.

Date/timePositionNaut miles runAvg speedWind from/ knotsBaromVisibWave heightAir tempDewpointWater temp
2015-Aug-10 04:21N 32°31' W 010°17'20413.7
2015-Aug-09 13:26N 35°23' W 008°05'1213.9
2015-Aug-09 12:33N 35°34' W 007°57'1413.7
2015-Aug-09 11:32N 35°46' W 007°48'89 3.5
2015-Aug-08 10:08N 37°05' W 006°56'0 0.0
2015-Aug-08 09:33N 37°05' W 006°56'0 0.0
2015-Aug-08 08:33N 37°05' W 006°56'0 0.1
2015-Aug-08 06:26N 37°05' W 006°55'0 0.1
2015-Aug-08 05:33N 37°05' W 006°55'0 0.1
2015-Aug-08 04:32N 37°05' W 006°55'0 0.0
2015-Aug-08 03:17N 37°05' W 006°55'121 3.8
2015-Aug-06 19:33N 35°18' W 008°08'1111.2
2015-Aug-06 18:33N 35°09' W 008°15'1110.7
2015-Aug-06 17:32N 34°60' W 008°23'3812.9
2015-Aug-06 14:33N 34°28' W 008°48'14813.3
2015-Aug-06 03:25N 32°23' W 010°23'2813.3
2015-Aug-06 01:20N 31°60' W 010°41'1312.7
2015-Aug-06 00:21N 31°49' W 010°49'1012.8
2015-Aug-05 23:33N 31°41' W 010°55'6713.1
2015-Aug-05 18:24N 30°43' W 011°37'13313.3
2015-Aug-05 08:22N 28°51' W 013°01'1113.7
2015-Aug-05 07:32N 28°42' W 013°08'1313.4
2015-Aug-05 06:33N 28°31' W 013°16'1413.4
2015-Aug-05 05:33N 28°19' W 013°24'1313.4
2015-Aug-05 04:33N 28°08' W 013°31'1413.5
2015-Aug-05 03:32N 27°57' W 013°41'1313.4
2015-Aug-05 02:34N 27°47' W 013°51'1413.5
2015-Aug-05 01:32N 27°37' W 014°01'1613.6
2015-Aug-05 00:22N 27°25' W 014°13'1113.3
2015-Aug-04 23:34N 27°16' W 014°20'1413.5
2015-Aug-04 22:33N 27°05' W 014°29'1414.0
2015-Aug-04 21:33N 26°55' W 014°39'1414.0
2015-Aug-04 20:32N 26°44' W 014°49'  
Track history (hours):
 
Tides and Currents Weather Stations Pressure Air Temp Water Temp Dewpoint Dewpoint Depression Visibility Wind Speed Wind Dir Waves Ship Positions

Monte Toledo

Last reported at 2015-Aug-10 04:21 UTC. Time now 2015-Aug-31 23:48 UTC.
Position N 32°31' W 010°17'.
Warning: this ship's position is 21 days out of date.

Length 274 m; draft 9 m.

Type: Tanker. MMSI: 255740000.

Date/timePositionNaut miles runAvg speedWind from/ knotsBaromVisibWave heightAir tempDewpointWater temp
2015-Aug-10 04:21N 32°31' W 010°17'20413.7
2015-Aug-09 13:26N 35°23' W 008°05'1213.9
2015-Aug-09 12:33N 35°34' W 007°57'1413.7
2015-Aug-09 11:32N 35°46' W 007°48'89 3.5
2015-Aug-08 10:08N 37°05' W 006°56'0 0.0
2015-Aug-08 09:33N 37°05' W 006°56'0 0.0
2015-Aug-08 08:33N 37°05' W 006°56'0 0.1
2015-Aug-08 06:26N 37°05' W 006°55'0 0.1
2015-Aug-08 05:33N 37°05' W 006°55'0 0.1
2015-Aug-08 04:32N 37°05' W 006°55'0 0.0
2015-Aug-08 03:17N 37°05' W 006°55'121 3.8
2015-Aug-06 19:33N 35°18' W 008°08'1111.2
2015-Aug-06 18:33N 35°09' W 008°15'1110.7
2015-Aug-06 17:32N 34°60' W 008°23'3812.9
2015-Aug-06 14:33N 34°28' W 008°48'14813.3
2015-Aug-06 03:25N 32°23' W 010°23'2813.3
2015-Aug-06 01:20N 31°60' W 010°41'1312.7
2015-Aug-06 00:21N 31°49' W 010°49'1012.8
2015-Aug-05 23:33N 31°41' W 010°55'6713.1
2015-Aug-05 18:24N 30°43' W 011°37'13313.3
2015-Aug-05 08:22N 28°51' W 013°01'1113.7
2015-Aug-05 07:32N 28°42' W 013°08'1313.4
2015-Aug-05 06:33N 28°31' W 013°16'1413.4
2015-Aug-05 05:33N 28°19' W 013°24'1313.4
2015-Aug-05 04:33N 28°08' W 013°31'1413.5
2015-Aug-05 03:32N 27°57' W 013°41'1313.4
2015-Aug-05 02:34N 27°47' W 013°51'1413.5
2015-Aug-05 01:32N 27°37' W 014°01'1613.6
2015-Aug-05 00:22N 27°25' W 014°13'1113.3
2015-Aug-04 23:34N 27°16' W 014°20'1413.5
2015-Aug-04 22:33N 27°05' W 014°29'1414.0
2015-Aug-04 21:33N 26°55' W 014°39'1414.0
2015-Aug-04 20:32N 26°44' W 014°49'  

Dump ship's entire track history